2015年8月8日 星期六

颱風天的桃園機場

颱風蘇迪勒(SOUDELOR)來襲,桃園機場(RCTP)的METAR讓人嚇了一跳,因為還是有航班準備降落

SPECI RCTP 071745Z 04033G65KT 1800 SHRA SCT006 BKN010 BKN025 27/26 Q0986 WS R05R NOSIG RMK A2914=

特殊天氣報告 SPECI
桃園機場 RCTP
8號凌晨01:45
風向40度,風速33節,陣風65節
能見度1800米
間歇性陣雨
600英尺 塊雲
1000英尺 裂雲
2500英尺 裂雲
溫度27度,露點26度
氣壓值 986hPa
R05跑道有風切警告

0 意見:

張貼留言

Weekly Posts